Time;durP1;ratioP1;P1;durP2;ratioP2;P2;SDS_P1;SDS_P2;PMS_P1;PMS_P2;Temp;Humidity;BMP_temperature;BMP_pressure;BME280_temperature;BME280_humidity;BME280_pressure;Samples;Min_cycle;Max_cycle;Signal;HPM_P1;HPM_P2
2023/06/30 00:02:47;;;;;;;19.88;16.42;;;;;;;13.98;92.25;97746.75;10364572;28;20511;-50
2023/06/30 00:07:47;;;;;;;18.27;16.13;;;;;;;14.05;93.32;97767.50;10367262;28;20068;-49
2023/06/30 00:12:46;;;;;;;21.88;16.38;;;;;;;14.05;93.12;97759.69;10373081;28;20068;-48
2023/06/30 00:17:44;;;;;;;;;;;;;;;14.01;92.77;97768.44;10376745;28;20064;-47
2023/06/30 00:22:43;;;;;;;19.58;16.45;;;;;;;13.91;93.06;97746.84;10375806;28;19923;-51
2023/06/30 00:27:42;;;;;;;21.80;16.88;;;;;;;13.99;92.74;97758.91;10375701;28;20060;-49
2023/06/30 00:32:41;;;;;;;;;;;;;;;13.95;92.40;97757.22;10375815;28;20106;-49
2023/06/30 00:37:40;;;;;;;21.08;16.73;;;;;;;13.94;92.22;97760.72;10375487;28;19970;-48
2023/06/30 00:42:39;;;;;;;;;;;;;;;13.85;92.26;97760.84;10375030;28;20115;-50
2023/06/30 00:47:38;;;;;;;22.25;15.85;;;;;;;13.80;92.04;97757.44;10374914;28;19912;-49
2023/06/30 00:52:37;;;;;;;19.00;15.75;;;;;;;13.75;92.53;97754.91;10372096;28;20444;-49
2023/06/30 00:57:37;;;;;;;19.30;16.45;;;;;;;13.77;92.23;97752.25;10373045;28;20064;-50
2023/06/30 01:02:43;;;;;;;19.95;15.98;;;;;;;13.67;92.97;97751.50;10374677;28;20067;-51
2023/06/30 01:08:00;;;;;;;21.05;17.02;;;;;;;13.59;92.96;97755.13;10374015;28;20500;-50
2023/06/30 01:13:01;;;;;;;25.95;17.85;;;;;;;13.55;93.08;97752.53;10373206;28;20441;-50
2023/06/30 01:18:02;;;;;;;24.15;18.30;;;;;;;13.47;93.77;97758.69;10368176;28;20071;-49
2023/06/30 01:23:14;;;;;;;23.20;17.02;;;;;;;13.42;93.38;97750.97;10369696;28;20116;-50
2023/06/30 01:28:14;;;;;;;22.80;16.35;;;;;;;13.29;93.83;97738.94;10369361;28;20453;-48
2023/06/30 01:33:13;;;;;;;21.45;16.65;;;;;;;13.26;93.71;97746.81;10369554;28;20053;-48
2023/06/30 01:38:13;;;;;;;27.40;18.73;;;;;;;13.24;93.60;97741.59;10369523;28;20120;-48
2023/06/30 01:43:13;;;;;;;26.08;18.02;;;;;;;13.22;93.87;97743.38;10369430;28;20068;-49
2023/06/30 01:48:12;;;;;;;22.67;17.90;;;;;;;13.13;95.06;97740.88;10368696;28;20064;-49
2023/06/30 01:53:13;;;;;;;23.15;17.33;;;;;;;13.07;94.85;97730.50;10368974;28;20064;-50
2023/06/30 01:58:12;;;;;;;23.48;18.50;;;;;;;13.00;95.16;97736.66;10367947;28;20067;-49
2023/06/30 02:03:11;;;;;;;;;;;;;;;12.96;95.17;97738.47;10369105;28;20040;-51
2023/06/30 02:08:10;;;;;;;27.70;19.48;;;;;;;12.98;95.00;97741.91;10367482;28;19912;-51
2023/06/30 02:13:09;;;;;;;27.95;21.15;;;;;;;12.97;94.84;97734.97;10368265;28;20044;-51
2023/06/30 02:18:08;;;;;;;;;;;;;;;12.97;94.94;97734.09;10367837;28;20959;-48
2023/06/30 02:23:06;;;;;;;28.98;19.88;;;;;;;12.98;94.73;97733.22;10367114;28;19963;-49
2023/06/30 02:28:05;;;;;;;;;;;;;;;12.96;94.85;97733.25;10367531;28;20464;-50
2023/06/30 02:33:05;;;;;;;25.58;18.85;;;;;;;12.93;95.12;97730.69;10366724;28;19939;-51
2023/06/30 02:38:05;;;;;;;27.90;18.88;;;;;;;12.19;95.76;97642.88;10366710;28;20560;-49
2023/06/30 02:43:04;;;;;;;24.45;19.23;;;;;;;12.81;95.43;97723.84;10367048;28;20512;-48
2023/06/30 02:48:03;;;;;;;;;;;;;;;12.77;95.68;97727.38;10366787;28;20103;-48
2023/06/30 02:53:02;;;;;;;23.08;18.45;;;;;;;12.78;95.75;97730.84;10366728;28;20003;-51
2023/06/30 02:58:02;;;;;;;28.45;19.13;;;;;;;12.76;95.73;97722.16;10366625;28;20114;-50
2023/06/30 03:03:00;;;;;;;;;;;;;;;12.75;96.04;97728.25;10367388;28;20544;-51
2023/06/30 03:07:59;;;;;;;22.58;17.50;;;;;;;12.62;96.35;97722.31;10366522;28;20383;-48
2023/06/30 03:12:58;;;;;;;26.20;18.88;;;;;;;12.60;96.25;97717.13;10366549;28;20167;-48
2023/06/30 03:17:57;;;;;;;22.65;17.98;;;;;;;12.61;96.34;97721.44;10365647;28;20043;-51
2023/06/30 03:22:56;;;;;;;;;;;;;;;12.69;96.25;97718.75;10367613;28;20059;-50
2023/06/30 03:27:55;;;;;;;27.83;19.48;;;;;;;12.71;95.94;97719.63;10365299;28;20580;-48
2023/06/30 03:32:54;;;;;;;;;;;;;;;12.69;96.08;97722.22;10366164;28;20559;-51
2023/06/30 03:37:53;;;;;;;26.52;19.73;;;;;;;12.75;96.22;97715.25;10365692;28;20407;-50
2023/06/30 03:42:52;;;;;;;;;;;;;;;12.78;96.43;97707.41;10365678;28;20068;-50
2023/06/30 03:47:50;;;;;;;28.43;20.97;;;;;;;12.86;96.41;97731.59;10365274;28;19999;-49
2023/06/30 03:52:49;;;;;;;;;;;;;;;12.97;96.05;97721.06;10365155;28;20119;-51
2023/06/30 03:57:48;;;;;;;30.38;21.35;;;;;;;13.13;95.79;97717.41;10365108;28;20151;-51
2023/06/30 04:02:47;;;;;;;;;;;;;;;13.25;95.60;97725.06;10365445;28;20073;-48
2023/06/30 04:07:46;;;;;;;31.65;23.38;;;;;;;13.37;95.44;97721.47;10364627;28;19970;-51
2023/06/30 04:12:45;;;;;;;;;;;;;;;13.50;95.57;97716.97;10365415;28;20120;-49
2023/06/30 04:17:44;;;;;;;33.13;23.80;;;;;;;13.64;95.55;97724.63;10363432;28;19971;-49
2023/06/30 04:22:43;;;;;;;;;;;;;;;13.67;95.51;97714.16;10362794;28;20143;-48
2023/06/30 04:27:41;;;;;;;27.57;21.77;;;;;;;13.78;95.26;97712.25;10363360;28;20484;-52
2023/06/30 04:32:41;;;;;;;;;;;;;;;13.99;94.88;97724.97;10363471;28;20717;-48
2023/06/30 04:37:40;;;;;;;63.77;50.70;;;;;;;14.11;94.37;97731.75;10363241;28;19999;-50
2023/06/30 04:42:39;;;;;;;51.78;41.38;;;;;;;14.13;93.88;97710.88;10324225;28;20125;-51
2023/06/30 04:47:38;;;;;;;;;;;;;;;14.37;93.45;97718.28;10334830;28;20020;-51
2023/06/30 04:52:37;;;;;;;28.37;23.47;;;;;;;14.48;93.28;97712.03;10358417;28;20015;-50
2023/06/30 04:57:36;;;;;;;;;;;;;;;14.63;92.72;97719.56;10349616;28;20025;-51
2023/06/30 05:02:35;;;;;;;19.33;15.07;;;;;;;14.78;92.42;97724.56;10334533;28;19917;-48
2023/06/30 05:07:34;;;;;;;;;;;;;;;14.84;92.24;97715.75;10339695;28;20112;-48
2023/06/30 05:12:35;;;;;;;16.75;13.98;;;;;;;14.98;91.79;97716.34;10346074;28;19916;-48
2023/06/30 05:17:34;;;;;;;19.00;14.88;;;;;;;14.85;91.58;97666.97;10359047;28;20490;-50
2023/06/30 05:22:33;;;;;;;20.02;15.02;;;;;;;15.24;92.04;97707.97;10360200;28;20406;-48
2023/06/30 05:27:32;;;;;;;;;;;;;;;15.51;91.21;97710.06;10361671;28;20083;-48
2023/06/30 05:32:31;;;;;;;21.57;14.60;;;;;;;15.73;90.19;97708.69;10339556;28;19917;-48
2023/06/30 05:37:30;;;;;;;18.83;14.38;;;;;;;15.90;88.40;97712.72;10349257;28;20072;-47
2023/06/30 05:42:29;;;;;;;20.30;14.38;;;;;;;15.86;88.48;97706.72;10338801;28;20032;-48
2023/06/30 05:47:28;;;;;;;;;;;;;;;15.90;89.36;97716.19;10366286;28;20473;-49
2023/06/30 05:52:27;;;;;;;19.53;14.10;;;;;;;16.18;88.87;97708.53;10335333;28;20426;-50
2023/06/30 05:57:29;;;;;;;16.33;14.25;;;;;;;16.38;87.53;97704.59;10333252;28;20076;-51
2023/06/30 06:02:28;;;;;;;17.38;13.38;;;;;;;16.41;86.85;97709.75;10365463;28;20104;-50
2023/06/30 06:07:27;;;;;;;14.90;12.80;;;;;;;16.65;85.33;97708.25;10335865;28;20068;-47
2023/06/30 06:12:26;;;;;;;13.43;12.02;;;;;;;16.97;84.74;97706.56;10366058;28;20096;-48
2023/06/30 06:17:25;;;;;;;12.52;11.23;;;;;;;17.12;83.24;97714.88;10364407;28;20502;-49
2023/06/30 06:22:24;;;;;;;14.93;11.13;;;;;;;17.21;83.33;97718.97;10328935;28;20120;-48
2023/06/30 06:27:23;;;;;;;11.73;9.52;;;;;;;17.31;79.49;97714.38;10355189;28;20088;-48
2023/06/30 06:32:22;;;;;;;11.73;8.85;;;;;;;17.53;78.33;97707.56;10346082;28;20490;-48
2023/06/30 06:37:21;;;;;;;12.63;9.13;;;;;;;17.74;77.66;97695.56;10366179;28;20592;-48
2023/06/30 06:42:20;;;;;;;10.43;8.70;;;;;;;18.06;75.66;97709.50;10328198;28;20143;-49
2023/06/30 06:47:57;;;;;;;11.25;8.40;;;;;;;18.32;74.78;97699.91;10364366;28;20144;-49
2023/06/30 06:52:56;;;;;;;8.75;7.72;;;;;;;18.48;73.48;97701.13;10349296;28;20104;-50
2023/06/30 06:57:55;;;;;;;12.45;8.15;;;;;;;18.89;73.06;97695.38;10358476;28;20156;-50
2023/06/30 07:02:54;;;;;;;9.48;7.78;;;;;;;19.18;72.04;97689.03;10360999;28;20124;-51
2023/06/30 07:07:53;;;;;;;9.55;7.65;;;;;;;19.50;71.91;97690.47;10331054;28;20121;-49
2023/06/30 07:12:53;;;;;;;8.88;7.97;;;;;;;19.45;68.79;97653.81;10364501;28;20067;-51
2023/06/30 07:17:52;;;;;;;12.40;10.57;;;;;;;19.77;68.73;97658.78;10359013;28;20083;-49
2023/06/30 07:22:53;;;;;;;14.48;7.70;;;;;;;20.14;68.01;97655.53;10361257;28;20054;-51
2023/06/30 07:27:54;;;;;;;9.27;7.50;;;;;;;20.60;65.82;97679.13;10355126;28;20068;-50
2023/06/30 07:32:54;;;;;;;9.90;6.53;;;;;;;20.70;62.35;97661.97;10327516;28;20523;-51
2023/06/30 07:37:54;;;;;;;10.10;6.55;;;;;;;20.96;62.78;97671.41;10325931;28;20124;-50
2023/06/30 07:42:55;;;;;;;7.80;6.28;;;;;;;21.24;60.87;97667.53;10328174;28;20140;-51
2023/06/30 07:47:54;;;;;;;7.20;5.72;;;;;;;21.45;58.82;97657.78;10362560;28;20060;-51
2023/06/30 07:52:53;;;;;;;9.43;5.03;;;;;;;21.75;57.62;97656.31;10359837;28;20140;-51
2023/06/30 07:57:52;;;;;;;8.55;4.70;;;;;;;22.01;56.45;97661.31;10330797;28;20480;-51
2023/06/30 08:02:51;;;;;;;5.70;4.55;;;;;;;22.18;54.03;97641.06;10326961;28;20455;-48
2023/06/30 08:07:50;;;;;;;6.20;3.28;;;;;;;22.42;48.70;97647.84;10327736;28;20029;-49
2023/06/30 08:12:49;;;;;;;6.40;3.55;;;;;;;22.37;48.21;97648.09;10364556;28;20500;-50
2023/06/30 08:17:48;;;;;;;5.95;3.83;;;;;;;22.58;49.18;97649.63;10328442;28;20113;-48
2023/06/30 08:22:47;;;;;;;5.38;3.13;;;;;;;22.59;46.91;97640.75;10367240;28;20061;-49
2023/06/30 08:27:46;;;;;;;4.63;3.20;;;;;;;22.85;46.98;97635.09;10341124;28;20025;-48
2023/06/30 08:32:45;;;;;;;4.93;2.70;;;;;;;22.90;45.22;97633.03;10334225;28;20457;-51
2023/06/30 08:37:44;;;;;;;5.90;2.75;;;;;;;22.95;44.30;97623.94;10375777;28;20713;-49
2023/06/30 08:42:45;;;;;;;3.17;2.60;;;;;;;22.89;44.56;97616.31;10337380;28;20057;-50
2023/06/30 08:47:44;;;;;;;3.17;2.50;;;;;;;23.01;43.85;97614.81;10358485;28;20064;-50
2023/06/30 08:52:43;;;;;;;3.90;3.03;;;;;;;23.31;44.84;97609.66;10342965;28;20028;-50
2023/06/30 08:57:44;;;;;;;4.65;2.72;;;;;;;23.49;43.99;97593.69;10347068;28;20033;-50
2023/06/30 09:02:43;;;;;;;3.45;2.63;;;;;;;23.61;43.87;97583.28;10358654;28;20132;-49
2023/06/30 09:07:50;;;;;;;4.78;2.80;;;;;;;23.74;43.20;97591.38;10353427;28;20504;-51
2023/06/30 09:12:54;;;;;;;4.88;2.90;;;;;;;23.71;41.89;97582.75;10349614;28;20588;-49
2023/06/30 09:17:53;;;;;;;4.30;2.83;;;;;;;23.73;42.65;97581.72;10365647;28;20075;-52
2023/06/30 09:22:52;;;;;;;2.95;2.60;;;;;;;23.46;42.38;97536.44;10343378;28;20132;-50
2023/06/30 09:27:52;;;;;;;4.38;2.80;;;;;;;23.93;42.39;97572.63;10341353;28;20108;-50
2023/06/30 09:32:53;;;;;;;4.22;2.92;;;;;;;24.10;41.23;97571.66;10342050;28;20572;-50
2023/06/30 09:37:53;;;;;;;5.22;3.08;;;;;;;24.08;40.43;97549.69;10345564;28;20497;-50
2023/06/30 09:42:53;;;;;;;2.90;2.50;;;;;;;24.36;41.50;97556.88;10340276;28;20072;-49
2023/06/30 09:47:55;;;;;;;5.13;2.70;;;;;;;24.45;40.28;97551.03;10338314;28;20341;-49
2023/06/30 09:52:55;;;;;;;9.02;5.18;;;;;;;24.65;40.69;97548.94;10341720;28;20654;-49
2023/06/30 09:57:57;;;;;;;5.18;2.85;;;;;;;24.67;41.40;97512.56;10332899;28;20065;-51
2023/06/30 10:03:05;;;;;;;3.20;2.90;;;;;;;24.94;40.64;97544.50;10344758;28;20104;-50
2023/06/30 10:08:05;;;;;;;4.63;2.70;;;;;;;24.88;40.60;97551.06;10333078;28;20153;-49
2023/06/30 10:13:05;;;;;;;6.07;2.72;;;;;;;25.06;40.72;97535.78;10357724;28;20100;-51
2023/06/30 10:18:07;;;;;;;3.72;2.83;;;;;;;24.96;39.47;97494.81;10357414;28;20107;-50
2023/06/30 10:23:06;;;;;;;4.63;2.70;;;;;;;24.86;39.77;97520.22;10337091;28;20119;-49
2023/06/30 10:28:06;;;;;;;3.90;2.70;;;;;;;25.18;39.00;97504.09;10336294;28;20547;-51
2023/06/30 10:33:05;;;;;;;3.70;2.60;;;;;;;25.30;38.84;97512.13;10336202;28;20120;-50
2023/06/30 10:38:04;;;;;;;4.05;3.00;;;;;;;25.31;38.65;97500.53;10337062;28;20108;-52
2023/06/30 10:43:06;;;;;;;5.78;3.22;;;;;;;25.43;38.90;97487.41;10358292;28;20125;-52
2023/06/30 10:48:12;;;;;;;5.93;2.90;;;;;;;25.39;38.71;97485.91;10346730;28;20186;-51
2023/06/30 10:53:18;;;;;;;4.43;2.92;;;;;;;25.59;39.78;97476.66;10347706;28;20053;-51
2023/06/30 10:58:23;;;;;;;4.07;2.60;;;;;;;25.83;38.39;97479.47;10356073;28;20076;-51
2023/06/30 11:03:22;;;;;;;5.28;3.00;;;;;;;26.07;38.86;97469.84;10358794;28;20072;-52
2023/06/30 11:08:22;;;;;;;5.50;3.05;;;;;;;25.70;38.92;97432.47;10338933;28;20079;-52
2023/06/30 11:13:36;;;;;;;4.00;3.33;;;;;;;26.09;37.95;97473.25;10338037;28;20532;-51
2023/06/30 11:18:38;;;;;;;4.05;3.00;;;;;;;26.17;37.93;97464.72;10355120;28;20137;-50
2023/06/30 11:23:38;;;;;;;4.30;3.15;;;;;;;26.31;38.45;97453.16;10357627;28;20064;-50
2023/06/30 11:28:39;;;;;;;4.00;2.90;;;;;;;26.24;38.34;97441.25;10358871;28;20076;-51
2023/06/30 11:33:42;;;;;;;4.20;3.10;;;;;;;26.31;37.24;97438.06;10358494;28;20706;-52
2023/06/30 11:38:45;;;;;;;4.03;3.10;;;;;;;26.36;37.56;97422.63;10356951;28;20068;-53
2023/06/30 11:43:53;;;;;;;3.47;3.17;;;;;;;26.45;37.27;97421.13;10357014;28;20125;-50
2023/06/30 11:48:52;;;;;;;5.25;3.40;;;;;;;26.53;38.24;97410.78;10338624;28;20068;-52
2023/06/30 11:53:51;;;;;;;6.53;3.20;;;;;;;26.82;37.05;97412.31;10343075;28;20029;-53
2023/06/30 11:58:51;;;;;;;5.75;2.92;;;;;;;27.31;37.00;97398.94;10336786;28;20043;-51
2023/06/30 12:03:59;;;;;;;3.75;2.83;;;;;;;27.30;36.00;97399.88;10360010;28;20150;-50
2023/06/30 12:08:58;;;;;;;4.45;2.92;;;;;;;27.28;35.52;97399.13;10346683;28;20076;-50
2023/06/30 12:13:57;;;;;;;3.00;2.70;;;;;;;27.31;35.96;97390.94;10347283;28;20504;-51
2023/06/30 12:18:56;;;;;;;3.53;3.08;;;;;;;27.37;35.34;97393.13;10366292;28;20072;-48
2023/06/30 12:23:56;;;;;;;2.95;2.75;;;;;;;27.63;35.04;97393.00;10345434;28;20108;-49
2023/06/30 12:29:07;;;;;;;4.15;2.70;;;;;;;27.77;34.35;97367.94;10346167;28;20687;-50
2023/06/30 12:34:06;;;;;;;4.70;3.10;;;;;;;28.08;34.63;97376.25;10345576;28;20116;-51
2023/06/30 12:39:05;;;;;;;3.10;2.85;;;;;;;28.30;34.27;97370.09;10344370;28;20056;-51
2023/06/30 12:44:04;;;;;;;3.35;2.88;;;;;;;28.59;33.16;97365.94;10345014;28;20036;-50
2023/06/30 12:49:05;;;;;;;3.60;2.72;;;;;;;28.26;32.60;97372.16;10361985;28;20073;-51
2023/06/30 12:54:04;;;;;;;3.50;2.75;;;;;;;28.00;33.08;97366.16;10345463;28;20107;-50
2023/06/30 12:59:04;;;;;;;3.60;3.10;;;;;;;27.98;33.51;97357.44;10361331;28;20065;-49
2023/06/30 13:04:03;;;;;;;2.85;2.55;;;;;;;28.26;32.60;97356.13;10342118;28;20123;-49
2023/06/30 13:09:02;;;;;;;3.25;2.85;;;;;;;28.68;34.13;97335.00;10329882;28;20348;-50
2023/06/30 13:14:02;;;;;;;4.20;2.88;;;;;;;29.06;32.78;97334.53;10339697;28;20095;-49
2023/06/30 13:19:01;;;;;;;2.47;2.28;;;;;;;29.35;32.65;97333.09;10369246;28;20902;-50
2023/06/30 13:24:00;;;;;;;5.60;2.72;;;;;;;29.41;32.24;97321.88;10368863;28;20412;-50
2023/06/30 13:28:59;;;;;;;2.58;2.20;;;;;;;29.13;31.85;97285.91;10361143;28;20112;-51
2023/06/30 13:33:58;;;;;;;3.88;2.50;;;;;;;28.91;30.39;97322.44;10330423;28;20108;-51
2023/06/30 13:38:58;;;;;;;3.58;2.58;;;;;;;28.83;32.22;97316.91;10329278;28;20132;-49
2023/06/30 13:43:57;;;;;;;6.28;3.00;;;;;;;28.84;32.19;97318.59;10329635;28;20156;-49
2023/06/30 13:48:55;;;;;;;3.67;2.20;;;;;;;28.22;30.87;97307.53;10335929;28;20052;-50
2023/06/30 13:53:54;;;;;;;3.58;2.25;;;;;;;28.74;30.32;97306.97;10333201;28;20219;-50
2023/06/30 13:58:53;;;;;;;3.50;2.47;;;;;;;29.02;30.02;97301.03;10350591;28;20129;-52
2023/06/30 14:03:52;;;;;;;3.53;2.28;;;;;;;29.06;29.30;97281.09;10329093;28;20032;-49
2023/06/30 14:08:52;;;;;;;3.47;2.13;;;;;;;29.13;29.64;97289.44;10327488;28;20386;-48
2023/06/30 14:13:51;;;;;;;2.42;2.13;;;;;;;29.15;29.54;97289.31;10328337;28;20489;-52
2023/06/30 14:18:50;;;;;;;3.35;2.30;;;;;;;29.54;30.98;97289.63;10328101;28;20534;-52
2023/06/30 14:23:49;;;;;;;3.50;3.00;;;;;;;29.68;30.40;97262.53;10332305;28;20099;-50
2023/06/30 14:28:48;;;;;;;3.92;2.72;;;;;;;29.76;30.76;97268.03;10365730;28;20021;-51
2023/06/30 14:33:47;;;;;;;2.70;2.50;;;;;;;29.92;31.61;97279.13;10366356;28;20063;-52
2023/06/30 14:38:46;;;;;;;2.67;2.42;;;;;;;29.60;32.65;97267.66;10363537;28;20061;-51
2023/06/30 14:43:45;;;;;;;3.42;2.55;;;;;;;29.28;33.74;97257.94;10328779;28;20104;-49
2023/06/30 14:48:44;;;;;;;2.72;2.53;;;;;;;29.24;33.61;97251.13;10363978;28;20147;-49
2023/06/30 14:53:43;;;;;;;4.20;2.28;;;;;;;29.07;34.01;97236.53;10360822;28;20023;-49
2023/06/30 14:58:43;;;;;;;3.75;2.50;;;;;;;29.16;32.80;97245.59;10343903;28;20111;-48
2023/06/30 15:03:42;;;;;;;5.65;2.40;;;;;;;29.15;33.35;97243.88;10326281;28;20120;-50
2023/06/30 15:08:42;;;;;;;2.38;2.15;;;;;;;28.80;34.30;97234.34;10326081;28;20112;-51
2023/06/30 15:13:40;;;;;;;3.88;2.53;;;;;;;28.72;34.64;97235.00;10364787;28;20493;-51
2023/06/30 15:18:40;;;;;;;2.63;2.40;;;;;;;28.65;33.67;97239.13;10324288;28;20138;-52
2023/06/30 15:23:39;;;;;;;4.57;2.55;;;;;;;28.52;33.51;97236.59;10364864;28;20037;-51
2023/06/30 15:28:38;;;;;;;2.92;2.28;;;;;;;28.33;32.53;97223.06;10364493;28;20104;-51
2023/06/30 15:33:37;;;;;;;2.85;2.40;;;;;;;28.61;33.55;97230.50;10326068;28;20072;-52
2023/06/30 15:38:36;;;;;;;3.08;2.78;;;;;;;28.62;34.39;97224.19;10363278;28;20032;-52
2023/06/30 15:43:35;;;;;;;3.03;2.35;;;;;;;28.51;36.15;97240.25;10364100;28;20124;-48
2023/06/30 15:48:34;;;;;;;5.57;2.90;;;;;;;28.52;36.28;97228.59;10363381;28;20471;-49
2023/06/30 15:53:33;;;;;;;3.40;2.63;;;;;;;28.19;37.94;97230.38;10359865;28;20480;-49
2023/06/30 15:58:32;;;;;;;4.78;2.97;;;;;;;28.16;38.61;97232.47;10347539;28;20039;-50
2023/06/30 16:03:31;;;;;;;3.15;2.72;;;;;;;27.98;37.80;97224.06;10326191;28;20073;-49
2023/06/30 16:08:30;;;;;;;2.80;2.50;;;;;;;27.91;39.16;97222.88;10360693;28;20095;-51
2023/06/30 16:13:29;;;;;;;3.33;2.65;;;;;;;27.86;39.15;97219.75;10328215;28;20029;-49
2023/06/30 16:18:28;;;;;;;5.20;3.30;;;;;;;27.60;39.37;97220.00;10325598;28;20085;-50
2023/06/30 16:23:27;;;;;;;3.75;2.80;;;;;;;27.54;39.85;97226.66;10324838;28;20150;-49
2023/06/30 16:28:26;;;;;;;2.65;2.45;;;;;;;27.60;39.62;97225.31;10322767;28;20041;-51
2023/06/30 16:33:25;;;;;;;3.70;2.67;;;;;;;27.52;40.45;97236.59;10356636;28;20028;-51
2023/06/30 16:38:24;;;;;;;3.60;3.10;;;;;;;27.38;40.20;97226.97;10363049;28;20400;-51
2023/06/30 16:43:26;;;;;;;3.55;2.90;;;;;;;27.27;41.12;97228.78;10362906;28;20045;-49
2023/06/30 16:48:25;;;;;;;3.83;2.70;;;;;;;27.47;41.41;97224.56;10329800;28;20119;-50
2023/06/30 16:53:24;;;;;;;3.40;2.92;;;;;;;27.37;40.63;97221.75;10363148;28;20059;-51
2023/06/30 16:58:25;;;;;;;4.03;2.95;;;;;;;27.19;40.84;97226.72;10350751;28;20036;-50
2023/06/30 17:03:24;;;;;;;4.60;3.35;;;;;;;27.13;42.07;97219.19;10369421;28;20508;-48
2023/06/30 17:08:23;;;;;;;4.78;3.13;;;;;;;27.03;42.16;97199.56;10336341;28;20513;-48
2023/06/30 17:13:22;;;;;;;5.55;3.20;;;;;;;26.94;42.52;97220.56;10332287;28;20069;-52
2023/06/30 17:18:21;;;;;;;4.97;3.30;;;;;;;26.53;42.57;97178.41;10360520;28;20115;-50
2023/06/30 17:23:20;;;;;;;4.93;3.47;;;;;;;26.63;42.87;97206.06;10338654;28;20079;-48
2023/06/30 17:28:19;;;;;;;5.97;3.60;;;;;;;26.44;44.64;97192.41;10331503;28;20203;-49
2023/06/30 17:33:18;;;;;;;8.93;4.85;;;;;;;26.34;45.47;97195.75;10329155;28;20261;-51
2023/06/30 17:38:17;;;;;;;7.45;4.43;;;;;;;26.16;46.59;97202.41;10330312;28;20116;-51
2023/06/30 17:43:16;;;;;;;6.10;4.05;;;;;;;25.93;47.08;97214.72;10355457;28;20041;-49
2023/06/30 17:48:15;;;;;;;6.72;3.97;;;;;;;25.67;48.46;97212.09;10330119;28;20112;-49
2023/06/30 17:53:14;;;;;;;7.40;4.00;;;;;;;25.34;49.34;97210.00;10328968;28;20025;-49
2023/06/30 17:58:12;;;;;;;6.75;4.28;;;;;;;25.03;50.33;97203.25;10343760;28;20409;-50
2023/06/30 18:03:12;;;;;;;8.18;3.97;;;;;;;24.70;51.16;97202.75;10339687;28;20025;-49
2023/06/30 18:08:11;;;;;;;10.95;5.85;;;;;;;24.33;52.16;97203.50;10328597;28;20061;-48
2023/06/30 18:13:10;;;;;;;9.45;5.47;;;;;;;23.96;53.60;97214.66;10328250;28;20052;-49
2023/06/30 18:18:09;;;;;;;8.80;4.70;;;;;;;23.60;55.27;97215.16;10356768;28;20037;-47
2023/06/30 18:23:08;;;;;;;6.25;4.70;;;;;;;23.31;56.38;97203.72;10369078;28;20508;-49
2023/06/30 18:28:07;;;;;;;9.15;5.40;;;;;;;23.16;57.17;97218.72;10369587;28;20544;-52
2023/06/30 18:33:06;;;;;;;7.50;4.93;;;;;;;22.92;57.76;97219.25;10370176;28;20502;-51
2023/06/30 18:38:05;;;;;;;8.65;5.32;;;;;;;22.50;59.36;97194.34;10345234;28;20139;-49
2023/06/30 18:43:04;;;;;;;8.07;5.18;;;;;;;22.45;59.67;97225.50;10354337;28;20108;-48
2023/06/30 18:48:03;;;;;;;10.90;5.47;;;;;;;22.21;61.20;97225.09;10345453;28;20075;-50
2023/06/30 18:53:02;;;;;;;7.25;5.35;;;;;;;21.97;61.82;97225.50;10352160;28;20017;-48
2023/06/30 18:58:01;;;;;;;8.02;5.47;;;;;;;21.81;62.72;97235.22;10352166;28;20080;-50
2023/06/30 19:03:00;;;;;;;9.65;5.22;;;;;;;21.61;63.04;97231.00;10368010;28;20480;-49
2023/06/30 19:07:59;;;;;;;7.55;5.47;;;;;;;21.17;63.33;97186.66;10346771;28;20481;-51
2023/06/30 19:12:58;;;;;;;7.55;6.13;;;;;;;21.21;65.43;97229.63;10349730;28;20060;-50
2023/06/30 19:17:57;;;;;;;10.30;7.18;;;;;;;21.04;67.21;97239.25;10363635;28;20120;-48
2023/06/30 19:22:56;;;;;;;13.32;8.30;;;;;;;20.93;69.37;97236.28;10364392;28;20487;-52
2023/06/30 19:27:54;;;;;;;9.70;7.15;;;;;;;20.79;70.65;97238.78;10343024;28;20045;-51
2023/06/30 19:32:53;;;;;;;7.53;6.20;;;;;;;20.62;71.55;97234.34;10324313;28;20116;-51
2023/06/30 19:37:52;;;;;;;9.93;6.85;;;;;;;20.48;71.68;97240.31;10325994;28;20021;-50
2023/06/30 19:42:51;;;;;;;9.27;6.40;;;;;;;20.35;72.14;97244.44;10325247;28;20149;-50
2023/06/30 19:47:50;;;;;;;10.70;6.40;;;;;;;20.27;72.69;97252.72;10343686;28;20054;-50
2023/06/30 19:52:50;;;;;;;13.05;9.88;;;;;;;20.11;73.74;97257.84;10346062;28;20028;-51
2023/06/30 19:57:49;;;;;;;18.67;8.68;;;;;;;20.00;74.05;97266.28;10345604;28;20068;-49
2023/06/30 20:02:48;;;;;;;16.33;9.48;;;;;;;19.89;74.24;97263.28;10324368;28;20029;-50
2023/06/30 20:07:47;;;;;;;15.25;8.80;;;;;;;19.78;74.56;97258.50;10326867;28;20041;-49
2023/06/30 20:12:46;;;;;;;12.70;8.00;;;;;;;19.70;74.69;97273.81;10327819;28;20033;-51
2023/06/30 20:17:45;;;;;;;18.17;9.85;;;;;;;19.61;75.68;97268.97;10363812;28;20072;-51
2023/06/30 20:22:45;;;;;;;17.30;11.93;;;;;;;19.53;76.58;97260.50;10346731;28;20041;-51
2023/06/30 20:27:44;;;;;;;13.45;9.35;;;;;;;19.43;77.30;97265.31;10333897;28;20080;-50
2023/06/30 20:32:43;;;;;;;11.40;7.65;;;;;;;19.35;76.87;97263.03;10346495;28;20013;-51
2023/06/30 20:37:42;;;;;;;10.00;7.43;;;;;;;19.26;76.88;97273.97;10355884;28;20505;-50
2023/06/30 20:42:41;;;;;;;8.95;7.88;;;;;;;19.17;77.32;97274.38;10332444;28;20568;-49
2023/06/30 20:47:40;;;;;;;8.02;6.95;;;;;;;19.04;77.70;97281.91;10355250;28;20598;-51
2023/06/30 20:52:39;;;;;;;11.95;7.95;;;;;;;18.87;77.89;97258.97;10348186;28;20025;-50
2023/06/30 20:57:38;;;;;;;10.93;7.55;;;;;;;18.89;78.24;97280.78;10350725;28;20567;-52
2023/06/30 21:02:37;;;;;;;10.18;7.38;;;;;;;18.79;78.32;97282.13;10369781;28;20567;-47
2023/06/30 21:07:36;;;;;;;13.55;9.93;;;;;;;18.68;79.92;97276.41;10370265;28;20504;-51
2023/06/30 21:12:35;;;;;;;13.77;8.43;;;;;;;18.47;81.79;97272.88;10370179;28;20376;-50
2023/06/30 21:17:34;;;;;;;13.45;8.57;;;;;;;18.42;82.00;97282.72;10361840;28;20065;-49
2023/06/30 21:22:33;;;;;;;9.75;8.20;;;;;;;18.23;83.39;97301.00;10344842;28;20037;-51
2023/06/30 21:27:32;;;;;;;12.50;8.43;;;;;;;18.21;82.79;97292.31;10362183;28;20042;-50
2023/06/30 21:32:31;;;;;;;17.00;8.70;;;;;;;18.04;84.28;97288.56;10342893;28;20032;-49
2023/06/30 21:37:30;;;;;;;14.18;9.52;;;;;;;18.03;84.30;97299.97;10362425;28;20028;-49
2023/06/30 21:42:29;;;;;;;12.63;10.00;;;;;;;18.02;83.76;97298.25;10341603;28;20460;-48
2023/06/30 21:47:28;;;;;;;12.18;10.10;;;;;;;17.92;84.16;97292.50;10363970;28;20471;-51
2023/06/30 21:52:27;;;;;;;12.70;9.93;;;;;;;17.84;85.98;97299.81;10339469;28;20104;-50
2023/06/30 21:57:26;;;;;;;10.45;9.02;;;;;;;17.73;86.34;97300.19;10355979;28;20111;-51
2023/06/30 22:02:25;;;;;;;11.48;9.93;;;;;;;17.66;86.80;97290.84;10371798;28;20103;-48
2023/06/30 22:07:24;;;;;;;12.98;9.77;;;;;;;17.70;86.86;97297.66;10369227;28;20385;-48
2023/06/30 22:12:22;;;;;;;12.00;10.07;;;;;;;17.67;86.51;97286.44;10368099;28;20021;-48
2023/06/30 22:17:21;;;;;;;11.00;9.90;;;;;;;17.59;86.82;97294.59;10364106;28;20024;-48
2023/06/30 22:22:20;;;;;;;12.13;10.90;;;;;;;17.54;86.90;97283.38;10362050;28;20431;-51
2023/06/30 22:27:19;;;;;;;13.20;10.10;;;;;;;17.49;86.73;97280.94;10363398;28;20508;-48
2023/06/30 22:32:18;;;;;;;11.82;8.73;;;;;;;17.44;85.91;97282.88;10366083;28;20488;-51
2023/06/30 22:37:17;;;;;;;9.75;8.55;;;;;;;17.35;84.96;97281.47;10367026;28;20123;-48
2023/06/30 22:42:16;;;;;;;11.77;9.23;;;;;;;17.31;84.64;97279.00;10367369;28;20049;-49
2023/06/30 22:47:16;;;;;;;11.30;8.35;;;;;;;17.23;84.37;97284.50;10366766;28;20120;-48
2023/06/30 22:52:15;;;;;;;11.43;10.23;;;;;;;17.14;86.97;97274.31;10367471;28;20587;-50
2023/06/30 22:57:14;;;;;;;13.75;11.45;;;;;;;17.05;87.81;97277.25;10346062;28;20551;-50
2023/06/30 23:02:13;;;;;;;16.85;12.23;;;;;;;16.93;89.01;97276.81;10366498;28;20658;-48
2023/06/30 23:07:13;;;;;;;13.13;10.00;;;;;;;16.54;88.73;97281.56;10359530;28;20796;-48
2023/06/30 23:12:12;;;;;;;12.20;10.90;;;;;;;16.47;88.82;97280.06;10357809;28;20064;-50